Flight Track Log - Related Links

Times and Time Zones

All times are in EDT time to prevent confusion due to time zone crossing. See the WWI24 flight status page for this flight to view local times or setup timezone preferences in your user account.

Time Position Orientation Groundspeed Altitude Reporting Facility
EDT Latitude Longitude Course Direction KTS MPH feet Rate Location/Type
Sun 11:59:16 PM 40.6333 -74.1833 217° Southwest 217 250 2,900  Level New York TRACON
Mon 12:00:16 AM 40.5833 -74.2333 217° Southwest 239 275 5,800 2,895 Climbing New York TRACON
Mon 12:01:10 AM 40.6000 -74.3167 285° West 276 318 8,400 2,794 Climbing New York TRACON
Mon 12:03:40 AM 40.6292 -74.5856 278° West 316 364 15,300 2,657 Climbing New York Center
Mon 12:04:40 AM 40.6336 -74.7061 273° West 328 377 17,700 1,918 Climbing New York Center
Mon 12:05:42 AM 40.6397 -74.8294 274° West 342 394 19,200 1,686 Climbing New York Center
Mon 12:06:41 AM 40.6517 -74.9642 277° West 360 414 21,100 2,136 Climbing New York Center
Mon 12:07:40 AM 40.6614 -75.1017 275° West 376 433 23,400 2,168 Climbing New York Center
Mon 12:08:40 AM 40.6706 -75.2417 275° West 387 445 25,400 2,000 Climbing New York Center
Mon 12:09:40 AM 40.6775 -75.3900 274° West 399 459 27,400 2,033 Climbing New York Center
Mon 12:10:41 AM 40.6864 -75.5331 275° West 404 465 29,500 2,100 Climbing New York Center
Mon 12:11:40 AM 40.6950 -75.6786 275° West 404 465 31,600 2,067 Climbing New York Center
Mon 12:12:40 AM 40.7036 -75.8217 275° West 404 465 33,600 2,656 Climbing New York Center
Mon 12:13:42 AM 40.7067 -75.9422 272° West 389 448 37,000 1,983 Climbing New York Center
Mon 12:14:41 AM 40.7156 -76.0717 275° West 377 434 37,600 712 Climbing New York Center
Mon 12:15:40 AM 40.7219 -76.2092 274° West 372 428 38,400 908 Climbing New York Center
Mon 12:16:40 AM 40.7278 -76.3492 273° West 372 428 39,400 738 Climbing New York Center
Mon 12:17:42 AM 40.7378 -76.4869 276° West 377 434 39,900 443 Climbing New York Center
Mon 12:18:42 AM 40.7431 -76.6356 273° West 390 449 40,300 407 Climbing New York Center
Mon 12:19:40 AM 40.7522 -76.7842 275° West 407 468 40,700 500 Climbing New York Center
Mon 12:20:42 AM 40.7589 -76.9408 273° West 418 481 41,300 650 Climbing New York Center
Mon 12:21:40 AM 40.7658 -77.0869 274° West 424 488 42,000 800 Climbing New York Center
Mon 12:22:42 AM 40.7742 -77.2411 274° West 424 488 42,900 500 Climbing New York Center
Mon 12:23:40 AM 40.7806 -77.3869 273° West 424 488 43,000 33 Climbing New York Center
Mon 12:25:45 AM 40.7942 -77.7197 273° West 413 475 43,000  Level Cleveland Center
Mon 12:26:45 AM 40.8000 -77.8731 273° West 418 481 43,000  Level Cleveland Center
Mon 12:27:45 AM 40.8078 -78.0264 274° West 423 487 43,000  Level Cleveland Center
Mon 12:28:45 AM 40.8111 -78.1800 272° West 423 487 43,000  Level Cleveland Center
Mon 12:29:45 AM 40.8164 -78.3306 273° West 423 487 43,000  Level Cleveland Center
Mon 12:30:45 AM 40.8214 -78.4869 272° West 423 487 43,000  Level Cleveland Center
Mon 12:31:45 AM 40.8261 -78.6403 272° West 423 487 43,000  Level Cleveland Center
Mon 12:32:45 AM 40.8328 -78.7967 273° West 423 487 43,000  Level Cleveland Center
Mon 12:33:45 AM 40.8389 -78.9172 274° West 418 481 43,000  Level Cleveland Center
Mon 12:34:45 AM 40.8453 -79.0844 273° West 418 481 43,000  Level Cleveland Center
Mon 12:35:45 AM 40.8494 -79.2408 272° West 418 481 43,000  Level Cleveland Center
Mon 12:36:45 AM 40.8553 -79.3944 273° West 418 481 43,000  Level Cleveland Center
Mon 12:37:45 AM 40.8567 -79.5508 271° West 418 481 43,000  Level Cleveland Center
Mon 12:38:45 AM 40.8622 -79.7047 273° West 418 481 43,000  Level Cleveland Center
Mon 12:39:45 AM 40.8633 -79.8611 271° West 423 487 43,000  Level Cleveland Center
Mon 12:40:45 AM 40.8683 -80.0119 273° West 423 487 43,000  Level Cleveland Center
Mon 12:41:45 AM 40.8711 -80.1686 271° West 423 487 43,000  Level Cleveland Center
Mon 12:42:45 AM 40.8736 -80.3194 271° West 423 487 43,000  Level Cleveland Center
Mon 12:43:45 AM 40.8758 -80.4706 271° West 423 487 43,000  Level Cleveland Center
Mon 12:44:45 AM 40.8781 -80.6269 271° West 423 487 43,000  Level Cleveland Center
Mon 12:45:45 AM 40.8842 -80.7836 273° West 423 487 43,000  Level Cleveland Center
Mon 12:46:45 AM 40.8858 -80.9403 271° West 423 487 43,000  Level Cleveland Center
Mon 12:47:45 AM 40.8831 -81.1186 269° West 430 495 43,000  Level Cleveland Center
Mon 12:48:45 AM 40.8864 -81.2753 272° West 436 502 43,000  Level Cleveland Center
Mon 12:49:45 AM 40.8875 -81.4317 271° West 436 502 43,000  Level Cleveland Center
Mon 12:50:45 AM 40.8883 -81.5883 270° West 436 502 43,000  Level Cleveland Center
Mon 12:51:45 AM 40.8889 -81.7478 270° West 436 502 43,000  Level Cleveland Center
Mon 12:52:45 AM 40.8892 -81.9069 270° West 436 502 43,000  Level Cleveland Center
Mon 12:53:45 AM 40.8917 -82.0469 271° West 436 502 43,000  Level Cleveland Center
Mon 12:54:45 AM 40.8917 -82.2036 270° West 436 502 43,000  Level Cleveland Center
Mon 12:55:45 AM 40.8914 -82.3603 270° West 436 502 43,000  Level Cleveland Center
Mon 12:56:45 AM 40.8908 -82.5167 270° West 436 502 43,000  Level Cleveland Center
Mon 12:57:45 AM 40.8897 -82.6897 270° West 436 502 43,000  Level Cleveland Center
Mon 12:58:45 AM 40.8889 -82.8519 270° West 436 502 43,000  Level Cleveland Center
Mon 12:59:45 AM 40.8897 -83.0083 270° West 441 507 43,000  Level Cleveland Center
Mon 01:00:45 AM 40.8883 -83.1650 269° West 436 502 43,000  Level Cleveland Center
Mon 01:01:45 AM 40.8914 -83.3081 272° West 436 502 43,000  Level Cleveland Center
Mon 01:02:45 AM 40.8875 -83.4644 268° West 436 502 43,000  Level Cleveland Center
Mon 01:03:45 AM 40.8856 -83.6236 269° West 436 502 43,000  Level Cleveland Center
Mon 01:05:22 AM 40.8833 -83.8869 269° West 438 504 43,000  Level Chicago Center
Mon 01:06:24 AM 40.8811 -84.0550 269° West 438 504 43,000  Level Indianapolis Center
Mon 01:07:23 AM 40.8783 -84.2083 269° West 439 505 43,000  Level Chicago Center
Mon 01:08:23 AM 40.8758 -84.3714 269° West 443 510 43,000  Level Chicago Center
Mon 01:09:23 AM 40.8731 -84.5308 269° West 437 503 43,000  Level Chicago Center
Mon 01:10:23 AM 40.8703 -84.6900 269° West 434 499 43,000  Level Chicago Center
Mon 01:11:23 AM 40.8667 -84.8486 268° West 433 498 43,000  Level Chicago Center
Mon 01:12:23 AM 40.8636 -85.0075 269° West 432 497 43,000  Level Chicago Center
Mon 01:13:23 AM 40.8600 -85.1644 268° West 429 494 43,000  Level Chicago Center
Mon 01:14:24 AM 40.8558 -85.3225 268° West 430 495 43,000  Level Chicago Center
Mon 01:15:24 AM 40.8525 -85.4822 268° West 432 497 43,000  Level Chicago Center
Mon 01:16:24 AM 40.8467 -85.6431 267° West 435 501 43,000  Level Chicago Center
Mon 01:17:24 AM 40.8436 -85.8053 269° West 442 509 43,000  Level Chicago Center
Mon 01:18:24 AM 40.8383 -85.9667 268° West 440 506 43,000  Level Chicago Center
Mon 01:19:24 AM 40.8333 -86.1311 268° West 440 506 43,000  Level Chicago Center
Mon 01:20:25 AM 40.8286 -86.2922 268° West 443 510 43,000  Level Chicago Center
Mon 01:21:25 AM 40.8236 -86.4503 268° West 437 503 43,000  Level Chicago Center
Mon 01:22:25 AM 40.8178 -86.6092 267° West 435 501 43,000  Level Chicago Center
Mon 01:23:25 AM 40.8114 -86.7661 267° West 433 498 43,000  Level Chicago Center
Mon 01:24:25 AM 40.8075 -86.9208 268° West 426 490 43,000  Level Chicago Center
Mon 01:25:25 AM 40.8014 -87.0822 267° West 437 503 43,000  Level Chicago Center
Mon 01:26:25 AM 40.7933 -87.2464 266° West 444 511 43,000  Level Chicago Center
Mon 01:27:26 AM 40.7847 -87.4097 266° West 444 511 43,000  Level Chicago Center
Mon 01:28:26 AM 40.7794 -87.5678 268° West 435 501 43,000  Level Chicago Center
Mon 01:29:26 AM 40.7717 -87.7253 266° West 431 496 43,000  Level Chicago Center
Mon 01:30:26 AM 40.7658 -87.8794 267° West 424 488 43,000  Level Chicago Center
Mon 01:31:26 AM 40.7583 -88.0336 266° West 421 484 43,000  Level Chicago Center
Mon 01:32:26 AM 40.7503 -88.1861 266° West 419 482 43,000  Level Chicago Center
Mon 01:33:26 AM 40.7433 -88.3389 267° West 419 482 43,000 200 Level Chicago Center
Mon 01:34:26 AM 40.7350 -88.4914 266° West 418 481 43,400 446 Climbing Chicago Center
Mon 01:35:27 AM 40.7275 -88.6453 266° West 422 486 43,900 496 Climbing Chicago Center
Mon 01:36:27 AM 40.7194 -88.7972 266° West 418 481 44,400 500 Climbing Chicago Center
Mon 01:37:27 AM 40.7103 -88.9536 266° West 406 467 44,900 300 Climbing Chicago Center
Mon 01:38:27 AM 40.7017 -89.1033 266° West 408 470 45,000 50 Climbing Chicago Center
Mon 01:39:27 AM 40.6925 -89.2561 266° West 418 481 45,000  Level Chicago Center
Mon 01:40:27 AM 40.6828 -89.4075 265° West 417 480 45,000  Level Chicago Center
Mon 01:41:27 AM 40.6733 -89.5567 265° West 412 474 45,000  Level Chicago Center
Mon 01:42:27 AM 40.6653 -89.6956 266° West 416 479 45,000  Level Chicago Center
Mon 01:43:28 AM 40.6594 -89.8494 267° West 422 486 45,000  Level Chicago Center
Mon 01:44:28 AM 40.6464 -90.0019 264° West 425 489 45,000  Level Chicago Center
Mon 01:45:28 AM 40.6381 -90.1550 266° West 423 487 45,000  Level Chicago Center
Mon 01:46:28 AM 40.6250 -90.3094 264° West 428 493 45,000  Level Chicago Center
Mon 01:47:28 AM 40.6150 -90.4611 265° West 421 484 45,000  Level Chicago Center
Mon 01:48:28 AM 40.6042 -90.6136 265° West 418 481 45,000  Level Chicago Center
Mon 01:49:28 AM 40.5922 -90.7672 264° West 421 484 45,000  Level Chicago Center
Mon 01:50:28 AM 40.5811 -90.9189 265° West 418 481 45,000  Level Chicago Center
Mon 01:51:28 AM 40.5708 -91.0725 265° West 420 483 45,000  Level Chicago Center
Mon 01:52:28 AM 40.5592 -91.2225 264° West 413 475 45,000  Level Chicago Center
Mon 01:53:28 AM 40.5469 -91.3878 264° West 415 478 45,000  Level Chicago Center
Mon 01:54:28 AM 40.5350 -91.5386 264° West 418 481 45,000  Level Chicago Center
Mon 01:55:29 AM 40.5233 -91.6872 264° West 414 476 45,000  Level Chicago Center
Mon 01:55:53 AM 40.5175 -91.7472 263° West 415 478 45,000  Level Kansas City Center
Mon 01:56:53 AM 40.5056 -91.8961 264° West 414 476 45,000  Level Kansas City Center
Mon 01:57:53 AM 40.4931 -92.0458 264° West 416 479 45,000  Level Kansas City Center
Mon 01:58:53 AM 40.4811 -92.1939 264° West 414 476 45,000  Level Kansas City Center
Mon 01:59:53 AM 40.4683 -92.3422 264° West 414 476 45,000  Level Kansas City Center
Mon 02:00:53 AM 40.4547 -92.4881 263° West 416 479 45,000  Level Kansas City Center
Mon 02:01:53 AM 40.4417 -92.6403 264° West 419 482 45,000  Level Kansas City Center
Mon 02:02:54 AM 40.4281 -92.7925 263° West 417 480 45,000  Level Kansas City Center
Mon 02:03:54 AM 40.4131 -92.9628 263° West 420 483 45,000  Level Kansas City Center
Mon 02:04:54 AM 40.3997 -93.1150 263° West 419 482 45,000  Level Kansas City Center
Mon 02:05:54 AM 40.3847 -93.2667 263° West 422 486 45,000  Level Kansas City Center
Mon 02:06:54 AM 40.3703 -93.4206 263° West 428 493 45,000  Level Kansas City Center
Mon 02:07:54 AM 40.3544 -93.5728 262° West 427 491 45,000  Level Kansas City Center
Mon 02:08:54 AM 40.3414 -93.7269 264° West 427 491 45,000  Level Kansas City Center
Mon 02:09:54 AM 40.3256 -93.8803 262° West 429 494 45,000  Level Kansas City Center
Mon 02:10:54 AM 40.3097 -94.0331 262° West 427 491 45,000  Level Kansas City Center
Mon 02:11:55 AM 40.2953 -94.1892 263° West 426 490 45,000  Level Kansas City Center
Mon 02:12:55 AM 40.2797 -94.3353 262° West 425 489 45,000  Level Kansas City Center
Mon 02:13:32 AM 40.2672 -94.4275 260° West 424 488 45,000  Level Minneapolis Center
Mon 02:14:32 AM 40.2519 -94.5683 262° West 419 482 45,000  Level Minneapolis Center
Mon 02:15:32 AM 40.2358 -94.7178 262° West 417 480 45,000  Level Minneapolis Center
Mon 02:16:32 AM 40.2206 -94.8683 262° West 416 479 45,000  Level Minneapolis Center
Mon 02:17:32 AM 40.2047 -95.0189 262° West 416 479 45,000  Level Minneapolis Center
Mon 02:18:32 AM 40.1889 -95.1692 262° West 416 479 45,000  Level Minneapolis Center
Mon 02:19:32 AM 40.1714 -95.3211 261° West 419 482 45,000  Level Minneapolis Center
Mon 02:20:33 AM 40.1553 -95.4714 262° West 419 482 45,000  Level Minneapolis Center
Mon 02:21:33 AM 40.1378 -95.6219 261° West 419 482 45,000  Level Minneapolis Center
Mon 02:22:33 AM 40.1200 -95.7761 261° West 422 486 45,000  Level Minneapolis Center
Mon 02:23:33 AM 40.1022 -95.9258 261° West 419 482 45,000  Level Minneapolis Center
Mon 02:24:33 AM 40.0842 -96.0747 261° West 416 479 45,000  Level Minneapolis Center
Mon 02:25:33 AM 40.0656 -96.2292 261° West 425 489 45,000  Level Minneapolis Center
Mon 02:26:33 AM 40.0469 -96.3847 261° West 430 495 45,000  Level Minneapolis Center
Mon 02:27:34 AM 40.0283 -96.5381 261° West 429 494 45,000  Level Minneapolis Center
Mon 02:28:34 AM 40.0100 -96.6886 261° West 423 487 45,000  Level Minneapolis Center
Mon 02:29:34 AM 39.9903 -96.8369 260° West 418 481 45,000  Level Minneapolis Center
Mon 02:30:34 AM 39.9717 -96.9856 261° West 416 479 45,000  Level Minneapolis Center
Mon 02:31:34 AM 39.9531 -97.1372 261° West 420 483 45,000  Level Minneapolis Center
Mon 02:32:34 AM 39.9336 -97.2872 260° West 421 484 45,000  Level Minneapolis Center
Mon 02:33:35 AM 39.9114 -97.4486 260° West 422 486 45,000  Level Minneapolis Center
Mon 02:34:35 AM 39.8919 -97.5992 260° West 421 484 45,000  Level Minneapolis Center
Mon 02:35:35 AM 39.8717 -97.7503 260° West 422 486 45,000  Level Minneapolis Center
Mon 02:36:35 AM 39.8511 -97.9000 260° West 421 484 45,000  Level Minneapolis Center
Mon 02:37:35 AM 39.8306 -98.0531 260° West 425 489 45,000  Level Minneapolis Center
Mon 02:38:36 AM 39.8092 -98.2044 260° West 426 490 45,000  Level Minneapolis Center
Mon 02:39:36 AM 39.7892 -98.3558 260° West 425 489 45,000  Level Minneapolis Center
Mon 02:40:36 AM 39.7669 -98.5069 259° West 424 488 45,000  Level Minneapolis Center
Mon 02:41:36 AM 39.7450 -98.6583 259° West 424 488 45,000  Level Minneapolis Center
Mon 02:42:36 AM 39.7233 -98.8097 260° West 425 489 45,000  Level Minneapolis Center
Mon 02:43:14 AM 39.7108 -98.9008 260° West 424 488 45,000  Level Denver Center
Mon 02:44:15 AM 39.6889 -99.0519 259° West 425 489 45,000  Level Denver Center
Mon 02:45:15 AM 39.6661 -99.2025 259° West 424 488 45,000  Level Denver Center
Mon 02:46:16 AM 39.6442 -99.3522 259° West 423 487 45,000  Level Denver Center
Mon 02:47:16 AM 39.6214 -99.5022 259° West 423 487 45,000  Level Denver Center
Mon 02:48:17 AM 39.5992 -99.6533 259° West 424 488 45,000  Level Denver Center
Mon 02:49:17 AM 39.5758 -99.8025 259° West 422 486 45,000  Level Denver Center
Mon 02:50:17 AM 39.5494 -99.9694 258° West 424 488 45,000  Level Denver Center
Mon 02:51:18 AM 39.5275 -100.1144 259° West 427 491 45,000  Level Denver Center
Mon 02:52:18 AM 39.5053 -100.2583 259° West 428 493 45,000  Level Denver Center
Mon 02:53:19 AM 39.4825 -100.4031 259° West 427 491 45,000  Level Denver Center
Mon 02:54:19 AM 39.4553 -100.5692 258° West 422 486 45,000  Level Denver Center
Mon 02:55:19 AM 39.4336 -100.7092 259° West 416 479 45,000  Level Denver Center
Mon 02:56:20 AM 39.4106 -100.8519 258° West 421 484 45,000  Level Denver Center
Mon 02:57:20 AM 39.3833 -101.0161 258° West 418 481 45,000  Level Denver Center
Mon 02:58:21 AM 39.3606 -101.1536 258° West 412 474 45,000  Level Denver Center
Mon 02:59:21 AM 39.3383 -101.2914 258° West 409 471 45,000  Level Denver Center
Mon 03:00:21 AM 39.3142 -101.4311 257° West 414 476 45,000  Level Denver Center
Mon 03:01:22 AM 39.2850 -101.5969 257° West 423 487 45,000  Level Denver Center
Mon 03:02:22 AM 39.2633 -101.7292 258° West 425 489 45,000  Level Denver Center
Mon 03:03:23 AM 39.2347 -101.8953 258° West 426 490 45,000  Level Denver Center
Mon 03:04:23 AM 39.2100 -102.0367 257° West 424 488 45,000  Level Denver Center
Mon 03:05:24 AM 39.1856 -102.1783 257° West 424 488 45,000  Level Denver Center
Mon 03:06:24 AM 39.1558 -102.3433 257° West 425 489 45,000  Level Denver Center
Mon 03:07:25 AM 39.1311 -102.4847 257° West 425 489 45,000  Level Denver Center
Mon 03:08:25 AM 39.1061 -102.6239 257° West 419 482 45,000  Level Denver Center
Mon 03:09:25 AM 39.0806 -102.7667 257° West 417 480 45,000  Level Denver Center
Mon 03:10:26 AM 39.0539 -102.9119 257° West 415 478 45,000  Level Denver Center
Mon 03:11:26 AM 39.0269 -103.0600 257° West 420 483 45,000  Level Denver Center
Mon 03:12:27 AM 38.9997 -103.2092 257° West 424 488 45,000  Level Denver Center
Mon 03:13:28 AM 38.9711 -103.3583 256° West 425 489 45,000  Level Denver Center
Mon 03:14:28 AM 38.9433 -103.5089 257° West 427 491 45,000  Level Denver Center
Mon 03:15:29 AM 38.9150 -103.6603 257° West 430 495 45,000  Level Denver Center
Mon 03:16:29 AM 38.8864 -103.8139 257° West 437 503 45,000  Level Denver Center
Mon 03:17:30 AM 38.8569 -103.9664 256° West 436 502 45,000  Level Denver Center
Mon 03:18:30 AM 38.8267 -104.1203 256° West 439 505 45,000  Level Denver Center
Mon 03:19:31 AM 38.7967 -104.2767 256° West 445 512 45,000  Level Denver Center
Mon 03:20:31 AM 38.7667 -104.4303 256° West 441 507 45,000  Level Denver Center
Mon 03:21:32 AM 38.7356 -104.5831 255° West 437 503 45,000  Level Denver Center
Mon 03:22:32 AM 38.7069 -104.7317 256° West 427 491 45,000  Level Denver Center
Mon 03:23:33 AM 38.6767 -104.8800 255° West 425 489 45,000  Level Denver Center
Mon 03:24:33 AM 38.6472 -105.0278 256° West 423 487 45,000  Level Denver Center
Mon 03:25:34 AM 38.6161 -105.1772 255° West 427 491 45,000  Level Denver Center
Mon 03:26:34 AM 38.5856 -105.3300 256° West 437 503 45,000  Level Denver Center
Mon 03:27:35 AM 38.5547 -105.4811 255° West 436 502 45,000  Level Denver Center
Mon 03:28:35 AM 38.5228 -105.6328 255° West 438 504 45,000  Level Denver Center
Mon 03:29:35 AM 38.4908 -105.7839 255° West 436 502 45,000  Level Denver Center
Mon 03:30:36 AM 38.4619 -105.9194 255° West 434 499 45,000  Level Denver Center
Mon 03:31:36 AM 38.4278 -106.0842 255° West 431 496 45,000  Level Denver Center
Mon 03:32:37 AM 38.3953 -106.2314 254° West 441 507 45,000  Level Denver Center
Mon 03:33:37 AM 38.3633 -106.3781 255° West 429 494 45,000  Level Denver Center
Mon 03:34:38 AM 38.3333 -106.5211 255° West 425 489 45,000  Level Denver Center
Mon 03:35:38 AM 38.3031 -106.6586 254° West 422 486 45,000  Level Denver Center
Mon 03:36:39 AM 38.2672 -106.8203 254° West 424 488 45,000  Level Denver Center
Mon 03:37:39 AM 38.2364 -106.9578 254° West 423 487 45,000  Level Denver Center
Mon 03:38:40 AM 38.2042 -107.1047 254° West 428 493 45,000  Level Denver Center
Mon 03:39:40 AM 38.1692 -107.2606 254° West 427 491 45,000  Level Denver Center
Mon 03:40:40 AM 38.1364 -107.4017 254° West 433 498 45,000  Level Denver Center
Mon 03:41:41 AM 38.1064 -107.5414 255° West 430 495 45,000  Level Denver Center
Mon 03:42:41 AM 38.0728 -107.6878 254° West 429 494 45,000  Level Denver Center
Mon 03:43:42 AM 38.0411 -107.8244 254° West 426 490 45,000  Level Denver Center
Mon 03:44:42 AM 38.0028 -107.9886 254° West 433 498 45,000  Level Denver Center
Mon 03:45:43 AM 37.9703 -108.1292 254° West 435 501 45,000  Level Denver Center
Mon 03:46:43 AM 37.9381 -108.2672 254° West 431 496 45,000  Level Denver Center
Mon 03:47:44 AM 37.9000 -108.4289 253° West 429 494 45,000  Level Denver Center
Mon 03:48:44 AM 37.8678 -108.5672 254° West 429 494 45,000  Level Denver Center
Mon 03:49:45 AM 37.8353 -108.7028 253° West 424 488 45,000  Level Denver Center
Mon 03:50:45 AM 37.7981 -108.8608 253° West 423 487 45,000  Level Denver Center
Mon 03:51:46 AM 37.7653 -108.9936 253° West 419 482 45,000  Level Denver Center
Mon 03:52:46 AM 37.7322 -109.1283 253° West 420 483 45,000  Level Denver Center
Mon 03:53:46 AM 37.6939 -109.2886 253° West 427 491 45,000  Level Denver Center
Mon 03:54:47 AM 37.6597 -109.4261 253° West 429 494 45,000  Level Denver Center
Mon 03:55:47 AM 37.6261 -109.5608 253° West 424 488 45,000  Level Denver Center
Mon 03:56:48 AM 37.5922 -109.6964 253° West 426 490 45,000  Level Denver Center
Mon 03:57:48 AM 37.5536 -109.8533 253° West 423 487 45,000  Level Denver Center
Mon 03:58:49 AM 37.5200 -109.9889 253° West 424 488 45,000  Level Denver Center
Mon 03:59:49 AM 37.4908 -110.1017 252° West 425 489 45,000  Level Denver Center
Mon 04:00:50 AM 37.4458 -110.2789 252° West 428 493 45,000  Level Denver Center
Mon 04:01:50 AM 37.4097 -110.4203 252° West 426 490 45,000  Level Denver Center
Mon 04:02:51 AM 37.3739 -110.5622 252° West 427 491 45,000  Level Denver Center
Mon 04:03:51 AM 37.3364 -110.7056 252° West 430 495 45,000  Level Denver Center
Mon 04:04:52 AM 37.2992 -110.8472 252° West 427 491 45,000  Level Denver Center
Mon 04:05:52 AM 37.2614 -110.9903 252° West 431 496 45,000  Level Denver Center
Mon 04:06:53 AM 37.2236 -111.1333 252° West 432 497 45,000  Level Denver Center
Mon 04:07:53 AM 37.1867 -111.2747 252° West 428 493 45,000  Level Denver Center
Mon 04:08:53 AM 37.1489 -111.4164 252° West 429 494 45,000  Level Denver Center
Mon 04:09:54 AM 37.1117 -111.5592 252° West 430 495 45,000  Level Denver Center
Mon 04:10:54 AM 37.0736 -111.6997 251° West 428 493 45,000  Level Denver Center
Mon 04:11:55 AM 37.0353 -111.8419 251° West 429 494 45,000  Level Denver Center
Mon 04:12:55 AM 36.9978 -111.9819 251° West 426 490 45,000  Level Denver Center
Mon 04:13:56 AM 36.9594 -112.1214 251° West 425 489 45,000  Level Denver Center
Mon 04:14:29 AM 36.9358 -112.2039 250° West 424 488 45,000  Level Los Angeles Center
Mon 04:15:29 AM 36.8967 -112.3450 251° West 426 490 45,000  Level Los Angeles Center
Mon 04:16:29 AM 36.8572 -112.4856 251° West 427 491 45,000  Level Los Angeles Center
Mon 04:17:30 AM 36.8186 -112.6278 251° West 431 496 45,000  Level Los Angeles Center
Mon 04:18:30 AM 36.7797 -112.7686 251° West 430 495 45,000  Level Los Angeles Center
Mon 04:19:30 AM 36.7386 -112.9094 250° West 430 495 45,000  Level Los Angeles Center
Mon 04:20:30 AM 36.6997 -113.0494 251° West 429 494 45,000  Level Los Angeles Center
Mon 04:21:31 AM 36.6603 -113.1883 251° West 426 490 45,000  Level Los Angeles Center
Mon 04:22:31 AM 36.6208 -113.3275 251° West 427 491 45,000  Level Los Angeles Center
Mon 04:23:31 AM 36.5811 -113.4667 250° West 426 490 45,000  Level Los Angeles Center
Mon 04:24:31 AM 36.5414 -113.6064 251° West 428 493 45,000  Level Los Angeles Center
Mon 04:25:31 AM 36.5042 -113.7342 250° West 426 490 45,000  Level Los Angeles Center
Mon 04:26:32 AM 36.4642 -113.8733 250° West 427 491 45,000  Level Los Angeles Center
Mon 04:27:32 AM 36.4239 -114.0106 250° West 425 489 45,000  Level Los Angeles Center
Mon 04:28:32 AM 36.3836 -114.1481 250° West 423 487 45,000  Level Los Angeles Center
Mon 04:29:32 AM 36.3431 -114.2869 250° West 426 490 45,000  Level Los Angeles Center
Mon 04:30:32 AM 36.3022 -114.4253 250° West 428 493 45,000  Level Los Angeles Center
Mon 04:31:32 AM 36.2606 -114.5628 249° West 426 490 45,000  Level Los Angeles Center
Mon 04:32:33 AM 36.2194 -114.7019 250° West 428 493 45,000  Level Los Angeles Center
Mon 04:33:33 AM 36.1767 -114.8411 249° West 429 494 45,000  Level Los Angeles Center
Mon 04:34:33 AM 36.1342 -114.9792 249° West 428 493 45,000  Level Los Angeles Center
Mon 04:35:33 AM 36.0917 -115.1186 249° West 429 494 45,000  Level Los Angeles Center
Mon 04:36:33 AM 36.0483 -115.2578 249° West 430 495 45,000  Level Los Angeles Center
Mon 04:37:34 AM 36.0019 -115.3978 248° West 434 499 45,000  Level Los Angeles Center
Mon 04:38:34 AM 35.9569 -115.5369 248° West 432 497 45,000  Level Los Angeles Center
Mon 04:39:34 AM 35.9119 -115.6753 248° West 431 496 45,000  Level Los Angeles Center
Mon 04:40:34 AM 35.8658 -115.8122 247° West 431 496 45,000 -600 Level Los Angeles Center
Mon 04:41:34 AM 35.8222 -115.9475 248° West 434 499 43,800 -1,700 Descending Los Angeles Center
Mon 04:42:34 AM 35.7758 -116.0861 248° West 439 505 41,600 -2,182 Descending Los Angeles Center
Mon 04:43:35 AM 35.7303 -116.2225 248° West 434 499 39,400 -2,182 Descending Los Angeles Center
Mon 04:44:35 AM 35.6836 -116.3603 247° West 437 503 37,200 -2,500 Descending Los Angeles Center
Mon 04:45:35 AM 35.6364 -116.5000 247° West 441 507 34,400 -2,850 Descending Los Angeles Center
Mon 04:46:35 AM 35.5883 -116.6406 247° West 449 517 31,500 -3,000 Descending Los Angeles Center
Mon 04:47:35 AM 35.5400 -116.7836 247° West 455 524 28,400 -3,124 Descending Los Angeles Center
Mon 04:48:36 AM 35.4911 -116.9239 247° West 450 518 25,200 -3,124 Descending Los Angeles Center
Mon 04:49:36 AM 35.4444 -117.0594 247° West 441 507 22,100 -3,050 Descending Los Angeles Center
Mon 04:50:36 AM 35.3997 -117.1867 247° West 419 482 19,100 -2,350 Descending Los Angeles Center
Mon 04:51:36 AM 35.3581 -117.3061 247° West 402 463 17,400 -1,900 Descending Los Angeles Center
Mon 04:52:36 AM 35.3181 -117.4208 247° West 384 442 15,300 -1,884 Descending Los Angeles Center
Mon 04:53:37 AM 35.2783 -117.5364 247° West 377 434 13,600 -1,934 Descending Los Angeles Center
Mon 04:54:37 AM 35.2225 -117.6692 243° Southwest 374 430 11,400 -1,850 Descending Los Angeles Center
Mon 04:55:37 AM 35.1733 -117.7664 238° Southwest 357 411 9,900 -1,200 Descending Los Angeles Center
Mon 04:56:37 AM 35.1500 -117.8636 254° West 315 362 9,000 -450 Descending Los Angeles Center
Mon 04:57:37 AM 35.1300 -117.9550 255° West 287 330 9,000 -99 Level Los Angeles Center
Mon 04:58:38 AM 35.1100 -118.0467 255° West 284 327 8,800 -843 Descending Los Angeles Center
Mon 04:59:38 AM 35.0811 -118.1144 243° Southwest 247 284 7,300 -1,750 Descending Los Angeles Center
Mon 05:00:38 AM 35.0433 -118.1731 232° Southwest 232 267 5,300 -1,600 Descending Los Angeles Center
Mon 05:01:38 AM 35.0106 -118.1336 135° Southeast 207 238 4,100 -1,150 Descending Los Angeles Center
Mon 05:02:38 AM 35.0378 -118.1250 15° North 170 196 3,000 -694 Descending Los Angeles Center
Mon 05:03:39 AM 35.0619 -118.1528 317° Northwest 154 177 2,700 -295 Descending Los Angeles Center

Login

Don't have an account? Register now (free) for customized features, flight alerts, and more!